Sapao, Philippines
Current Conditions -  °F | °C
As of 8:00 AM on Thursday 23 Oct 2014 (Local Time) from RPVM Reporting Station
Scattered Clouds Scattered Clouds  
Wind Chill: 86°   Ceiling: Unl
Heat Index: 95°   Visibility: 6mi
Dew Point: 75°   Wind: 5mph
Humidity: 70%   Direction: 10°N
Pressure: 29.85"   Gusts: NA
Location:  10.02°N, 126.04°E
Report Text: RPVM 230000Z 01004KT 9999 FEW018CB SCT300 30/24 Q1011 RMK A2985 CB SSE- E AND E
Loading
Personal Weather Stations






























Interactive Weather Map
Tropical Storm Tracking
New forecast layout! Learn more

10-Day Weather Forecast

Advertisements
Track Severe Weather on mobile